sensor_id;sensor_type;location;lat;lon;timestamp;P1;durP1;ratioP1;P2;durP2;ratioP2
12587;SDS011;6359;51.450;7.346;2023-04-06T00:00:48;11.13;;;7.63;;
12587;SDS011;6359;51.450;7.346;2023-04-06T00:03:16;12.47;;;7.07;;
12587;SDS011;6359;51.450;7.346;2023-04-06T00:05:43;14.33;;;8.10;;
12587;SDS011;6359;51.450;7.346;2023-04-06T00:08:11;13.27;;;7.83;;
12587;SDS011;6359;51.450;7.346;2023-04-06T00:10:38;13.17;;;8.17;;
12587;SDS011;6359;51.450;7.346;2023-04-06T00:13:05;10.90;;;6.87;;
12587;SDS011;6359;51.450;7.346;2023-04-06T00:15:32;11.43;;;7.60;;
12587;SDS011;6359;51.450;7.346;2023-04-06T00:18:00;13.03;;;7.57;;
12587;SDS011;6359;51.450;7.346;2023-04-06T00:20:29;11.63;;;7.07;;
12587;SDS011;6359;51.450;7.346;2023-04-06T00:22:56;12.43;;;8.47;;
12587;SDS011;6359;51.450;7.346;2023-04-06T00:25:23;12.37;;;7.70;;
12587;SDS011;6359;51.450;7.346;2023-04-06T00:27:50;13.47;;;7.83;;
12587;SDS011;6359;51.450;7.346;2023-04-06T00:30:18;11.43;;;7.77;;
12587;SDS011;6359;51.450;7.346;2023-04-06T00:32:45;13.90;;;7.53;;
12587;SDS011;6359;51.450;7.346;2023-04-06T00:35:12;11.20;;;7.90;;
12587;SDS011;6359;51.450;7.346;2023-04-06T00:37:41;12.37;;;7.73;;
12587;SDS011;6359;51.450;7.346;2023-04-06T00:40:09;13.10;;;8.07;;
12587;SDS011;6359;51.450;7.346;2023-04-06T00:42:36;14.10;;;8.30;;
12587;SDS011;6359;51.450;7.346;2023-04-06T00:45:04;16.20;;;8.37;;
12587;SDS011;6359;51.450;7.346;2023-04-06T00:47:32;14.07;;;7.93;;
12587;SDS011;6359;51.450;7.346;2023-04-06T00:50:00;14.90;;;8.87;;
12587;SDS011;6359;51.450;7.346;2023-04-06T00:52:27;14.00;;;8.13;;
12587;SDS011;6359;51.450;7.346;2023-04-06T00:54:55;14.07;;;8.73;;
12587;SDS011;6359;51.450;7.346;2023-04-06T00:57:23;15.97;;;9.20;;
12587;SDS011;6359;51.450;7.346;2023-04-06T00:59:50;11.67;;;7.30;;
12587;SDS011;6359;51.450;7.346;2023-04-06T01:02:19;15.23;;;8.47;;
12587;SDS011;6359;51.450;7.346;2023-04-06T01:04:46;12.10;;;8.40;;
12587;SDS011;6359;51.450;7.346;2023-04-06T01:07:13;12.20;;;8.20;;
12587;SDS011;6359;51.450;7.346;2023-04-06T01:09:40;13.00;;;8.50;;
12587;SDS011;6359;51.450;7.346;2023-04-06T01:12:09;15.53;;;9.80;;
12587;SDS011;6359;51.450;7.346;2023-04-06T01:14:36;14.87;;;8.83;;
12587;SDS011;6359;51.450;7.346;2023-04-06T01:17:03;15.63;;;9.03;;
12587;SDS011;6359;51.450;7.346;2023-04-06T01:19:30;14.47;;;8.93;;
12587;SDS011;6359;51.450;7.346;2023-04-06T01:21:57;19.00;;;9.33;;
12587;SDS011;6359;51.450;7.346;2023-04-06T01:24:26;15.53;;;9.17;;
12587;SDS011;6359;51.450;7.346;2023-04-06T01:26:53;20.10;;;10.10;;
12587;SDS011;6359;51.450;7.346;2023-04-06T01:29:21;19.13;;;10.07;;
12587;SDS011;6359;51.450;7.346;2023-04-06T01:31:48;14.83;;;8.57;;
12587;SDS011;6359;51.450;7.346;2023-04-06T01:34:15;15.17;;;9.37;;
12587;SDS011;6359;51.450;7.346;2023-04-06T01:36:43;19.90;;;9.47;;
12587;SDS011;6359;51.450;7.346;2023-04-06T01:39:10;17.33;;;9.23;;
12587;SDS011;6359;51.450;7.346;2023-04-06T01:41:38;16.50;;;9.93;;
12587;SDS011;6359;51.450;7.346;2023-04-06T01:44:06;14.77;;;9.13;;
12587;SDS011;6359;51.450;7.346;2023-04-06T01:46:33;14.63;;;8.97;;
12587;SDS011;6359;51.450;7.346;2023-04-06T01:49:00;18.67;;;9.00;;
12587;SDS011;6359;51.450;7.346;2023-04-06T01:51:27;14.10;;;9.73;;
12587;SDS011;6359;51.450;7.346;2023-04-06T01:53:55;18.37;;;9.53;;
12587;SDS011;6359;51.450;7.346;2023-04-06T01:56:22;17.23;;;9.30;;
12587;SDS011;6359;51.450;7.346;2023-04-06T01:58:51;15.20;;;9.53;;
12587;SDS011;6359;51.450;7.346;2023-04-06T02:01:18;13.70;;;9.23;;
12587;SDS011;6359;51.450;7.346;2023-04-06T02:03:45;17.47;;;10.20;;
12587;SDS011;6359;51.450;7.346;2023-04-06T02:06:12;19.30;;;9.77;;
12587;SDS011;6359;51.450;7.346;2023-04-06T02:08:39;16.47;;;9.40;;
12587;SDS011;6359;51.450;7.346;2023-04-06T02:11:06;14.00;;;9.60;;
12587;SDS011;6359;51.450;7.346;2023-04-06T02:13:33;15.03;;;9.47;;
12587;SDS011;6359;51.450;7.346;2023-04-06T02:16:02;14.33;;;9.77;;
12587;SDS011;6359;51.450;7.346;2023-04-06T02:18:30;15.50;;;9.40;;
12587;SDS011;6359;51.450;7.346;2023-04-06T02:20:57;17.47;;;9.50;;
12587;SDS011;6359;51.450;7.346;2023-04-06T02:23:24;16.60;;;10.93;;
12587;SDS011;6359;51.450;7.346;2023-04-06T02:25:51;12.93;;;9.27;;
12587;SDS011;6359;51.450;7.346;2023-04-06T02:28:18;13.23;;;8.57;;
12587;SDS011;6359;51.450;7.346;2023-04-06T02:30:46;14.70;;;9.63;;
12587;SDS011;6359;51.450;7.346;2023-04-06T02:33:14;14.57;;;9.03;;
12587;SDS011;6359;51.450;7.346;2023-04-06T02:35:41;17.83;;;9.73;;
12587;SDS011;6359;51.450;7.346;2023-04-06T02:38:10;13.03;;;9.33;;
12587;SDS011;6359;51.450;7.346;2023-04-06T02:40:37;20.37;;;9.03;;
12587;SDS011;6359;51.450;7.346;2023-04-06T02:43:05;16.47;;;9.43;;
12587;SDS011;6359;51.450;7.346;2023-04-06T02:45:32;12.70;;;8.40;;
12587;SDS011;6359;51.450;7.346;2023-04-06T02:47:59;14.83;;;9.30;;
12587;SDS011;6359;51.450;7.346;2023-04-06T02:50:27;13.93;;;8.30;;
12587;SDS011;6359;51.450;7.346;2023-04-06T02:52:55;16.07;;;9.57;;
12587;SDS011;6359;51.450;7.346;2023-04-06T02:55:22;11.97;;;8.70;;
12587;SDS011;6359;51.450;7.346;2023-04-06T02:57:49;13.90;;;8.47;;
12587;SDS011;6359;51.450;7.346;2023-04-06T03:00:16;15.93;;;9.53;;
12587;SDS011;6359;51.450;7.346;2023-04-06T03:02:43;13.07;;;8.33;;
12587;SDS011;6359;51.450;7.346;2023-04-06T03:05:11;11.23;;;8.60;;
12587;SDS011;6359;51.450;7.346;2023-04-06T03:07:39;11.50;;;8.67;;
12587;SDS011;6359;51.450;7.346;2023-04-06T03:10:07;14.37;;;9.07;;
12587;SDS011;6359;51.450;7.346;2023-04-06T03:12:34;14.37;;;9.07;;
12587;SDS011;6359;51.450;7.346;2023-04-06T03:15:02;16.90;;;8.60;;
12587;SDS011;6359;51.450;7.346;2023-04-06T03:17:29;13.03;;;9.17;;
12587;SDS011;6359;51.450;7.346;2023-04-06T03:19:56;16.30;;;10.00;;
12587;SDS011;6359;51.450;7.346;2023-04-06T03:22:23;16.07;;;9.67;;
12587;SDS011;6359;51.450;7.346;2023-04-06T03:24:52;14.00;;;9.40;;
12587;SDS011;6359;51.450;7.346;2023-04-06T03:27:19;15.13;;;9.13;;
12587;SDS011;6359;51.450;7.346;2023-04-06T03:29:46;14.57;;;9.00;;
12587;SDS011;6359;51.450;7.346;2023-04-06T03:32:13;14.93;;;8.40;;
12587;SDS011;6359;51.450;7.346;2023-04-06T03:34:41;13.53;;;8.43;;
12587;SDS011;6359;51.450;7.346;2023-04-06T03:37:08;12.57;;;8.17;;
12587;SDS011;6359;51.450;7.346;2023-04-06T03:39:35;14.67;;;7.83;;
12587;SDS011;6359;51.450;7.346;2023-04-06T03:42:04;17.23;;;8.80;;
12587;SDS011;6359;51.450;7.346;2023-04-06T03:44:31;14.43;;;9.07;;
12587;SDS011;6359;51.450;7.346;2023-04-06T03:46:58;11.77;;;8.40;;
12587;SDS011;6359;51.450;7.346;2023-04-06T03:49:26;10.23;;;7.83;;
12587;SDS011;6359;51.450;7.346;2023-04-06T03:51:53;11.47;;;7.77;;
12587;SDS011;6359;51.450;7.346;2023-04-06T03:54:20;17.07;;;9.10;;
12587;SDS011;6359;51.450;7.346;2023-04-06T03:56:47;14.40;;;8.30;;
12587;SDS011;6359;51.450;7.346;2023-04-06T03:59:16;17.83;;;9.00;;
12587;SDS011;6359;51.450;7.346;2023-04-06T04:01:43;11.90;;;8.17;;
12587;SDS011;6359;51.450;7.346;2023-04-06T04:04:10;11.77;;;8.47;;
12587;SDS011;6359;51.450;7.346;2023-04-06T04:06:37;14.30;;;8.20;;
12587;SDS011;6359;51.450;7.346;2023-04-06T04:09:05;11.40;;;7.53;;
12587;SDS011;6359;51.450;7.346;2023-04-06T04:11:32;14.57;;;8.63;;
12587;SDS011;6359;51.450;7.346;2023-04-06T04:13:59;13.93;;;7.90;;
12587;SDS011;6359;51.450;7.346;2023-04-06T04:16:27;11.80;;;8.30;;
12587;SDS011;6359;51.450;7.346;2023-04-06T04:18:55;12.87;;;8.57;;
12587;SDS011;6359;51.450;7.346;2023-04-06T04:21:23;18.80;;;9.27;;
12587;SDS011;6359;51.450;7.346;2023-04-06T04:23:50;13.47;;;8.70;;
12587;SDS011;6359;51.450;7.346;2023-04-06T04:26:18;17.87;;;9.37;;
12587;SDS011;6359;51.450;7.346;2023-04-06T04:28:46;16.33;;;9.20;;
12587;SDS011;6359;51.450;7.346;2023-04-06T04:31:13;13.70;;;8.63;;
12587;SDS011;6359;51.450;7.346;2023-04-06T04:33:41;12.13;;;8.87;;
12587;SDS011;6359;51.450;7.346;2023-04-06T04:36:08;14.80;;;8.60;;
12587;SDS011;6359;51.450;7.346;2023-04-06T04:38:36;16.87;;;9.33;;
12587;SDS011;6359;51.450;7.346;2023-04-06T04:41:03;14.50;;;8.57;;
12587;SDS011;6359;51.450;7.346;2023-04-06T04:43:30;14.07;;;9.30;;
12587;SDS011;6359;51.450;7.346;2023-04-06T04:45:57;17.47;;;9.83;;
12587;SDS011;6359;51.450;7.346;2023-04-06T04:48:24;14.17;;;9.53;;
12587;SDS011;6359;51.450;7.346;2023-04-06T04:50:53;15.57;;;8.97;;
12587;SDS011;6359;51.450;7.346;2023-04-06T04:53:21;18.60;;;9.60;;
12587;SDS011;6359;51.450;7.346;2023-04-06T04:55:48;19.70;;;9.20;;
12587;SDS011;6359;51.450;7.346;2023-04-06T04:58:15;16.20;;;9.80;;
12587;SDS011;6359;51.450;7.346;2023-04-06T05:00:43;22.83;;;9.70;;
12587;SDS011;6359;51.450;7.346;2023-04-06T05:03:11;18.50;;;8.97;;
12587;SDS011;6359;51.450;7.346;2023-04-06T05:05:44;16.57;;;9.50;;
12587;SDS011;6359;51.450;7.346;2023-04-06T05:08:13;15.50;;;9.90;;
12587;SDS011;6359;51.450;7.346;2023-04-06T05:10:40;16.37;;;9.77;;
12587;SDS011;6359;51.450;7.346;2023-04-06T05:13:07;16.37;;;9.97;;
12587;SDS011;6359;51.450;7.346;2023-04-06T05:15:34;15.87;;;9.73;;
12587;SDS011;6359;51.450;7.346;2023-04-06T05:18:03;15.37;;;9.57;;
12587;SDS011;6359;51.450;7.346;2023-04-06T05:20:31;14.83;;;9.47;;
12587;SDS011;6359;51.450;7.346;2023-04-06T05:22:58;18.07;;;9.30;;
12587;SDS011;6359;51.450;7.346;2023-04-06T05:25:26;18.87;;;10.20;;
12587;SDS011;6359;51.450;7.346;2023-04-06T05:27:54;14.60;;;9.40;;
12587;SDS011;6359;51.450;7.346;2023-04-06T05:30:21;15.57;;;9.40;;
12587;SDS011;6359;51.450;7.346;2023-04-06T05:32:48;17.97;;;9.40;;
12587;SDS011;6359;51.450;7.346;2023-04-06T05:35:16;12.90;;;8.63;;
12587;SDS011;6359;51.450;7.346;2023-04-06T05:37:43;19.87;;;8.93;;
12587;SDS011;6359;51.450;7.346;2023-04-06T05:40:10;18.37;;;9.87;;
12587;SDS011;6359;51.450;7.346;2023-04-06T05:42:39;15.90;;;8.67;;
12587;SDS011;6359;51.450;7.346;2023-04-06T05:45:08;14.47;;;8.73;;
12587;SDS011;6359;51.450;7.346;2023-04-06T05:47:41;12.00;;;8.67;;
12587;SDS011;6359;51.450;7.346;2023-04-06T05:50:08;18.20;;;9.40;;
12587;SDS011;6359;51.450;7.346;2023-04-06T05:52:36;14.33;;;8.40;;
12587;SDS011;6359;51.450;7.346;2023-04-06T05:55:03;14.80;;;8.77;;
12587;SDS011;6359;51.450;7.346;2023-04-06T05:57:31;14.03;;;8.70;;
12587;SDS011;6359;51.450;7.346;2023-04-06T05:59:59;14.90;;;8.50;;
12587;SDS011;6359;51.450;7.346;2023-04-06T06:02:30;12.93;;;8.13;;
12587;SDS011;6359;51.450;7.346;2023-04-06T06:04:57;11.77;;;8.77;;
12587;SDS011;6359;51.450;7.346;2023-04-06T06:07:24;12.97;;;8.47;;
12587;SDS011;6359;51.450;7.346;2023-04-06T06:09:51;12.83;;;8.87;;
12587;SDS011;6359;51.450;7.346;2023-04-06T06:12:18;14.50;;;8.53;;
12587;SDS011;6359;51.450;7.346;2023-04-06T06:14:46;12.77;;;7.73;;
12587;SDS011;6359;51.450;7.346;2023-04-06T06:17:14;11.63;;;7.43;;
12587;SDS011;6359;51.450;7.346;2023-04-06T06:19:41;10.87;;;7.33;;
12587;SDS011;6359;51.450;7.346;2023-04-06T06:22:08;9.60;;;6.90;;
12587;SDS011;6359;51.450;7.346;2023-04-06T06:24:36;8.17;;;6.10;;
12587;SDS011;6359;51.450;7.346;2023-04-06T06:27:03;12.20;;;6.10;;
12587;SDS011;6359;51.450;7.346;2023-04-06T06:29:30;11.35;;;5.72;;
12587;SDS011;6359;51.450;7.346;2023-04-06T06:31:57;14.47;;;5.83;;
12587;SDS011;6359;51.450;7.346;2023-04-06T06:34:26;10.52;;;6.47;;
12587;SDS011;6359;51.450;7.346;2023-04-06T06:36:53;9.77;;;5.32;;
12587;SDS011;6359;51.450;7.346;2023-04-06T06:39:20;9.20;;;4.88;;
12587;SDS011;6359;51.450;7.346;2023-04-06T06:41:47;11.20;;;5.57;;
12587;SDS011;6359;51.450;7.346;2023-04-06T06:44:15;11.98;;;5.47;;
12587;SDS011;6359;51.450;7.346;2023-04-06T06:46:42;6.70;;;4.82;;
12587;SDS011;6359;51.450;7.346;2023-04-06T06:49:09;9.00;;;5.00;;
12587;SDS011;6359;51.450;7.346;2023-04-06T06:51:39;9.88;;;4.75;;
12587;SDS011;6359;51.450;7.346;2023-04-06T06:54:06;5.93;;;4.57;;
12587;SDS011;6359;51.450;7.346;2023-04-06T06:56:33;6.18;;;4.43;;
12587;SDS011;6359;51.450;7.346;2023-04-06T06:59:02;8.18;;;5.05;;
12587;SDS011;6359;51.450;7.346;2023-04-06T07:01:29;7.53;;;5.15;;
12587;SDS011;6359;51.450;7.346;2023-04-06T07:03:57;5.80;;;4.68;;
12587;SDS011;6359;51.450;7.346;2023-04-06T07:06:24;7.32;;;5.28;;
12587;SDS011;6359;51.450;7.346;2023-04-06T07:08:53;7.53;;;4.50;;
12587;SDS011;6359;51.450;7.346;2023-04-06T07:11:20;11.50;;;5.18;;
12587;SDS011;6359;51.450;7.346;2023-04-06T07:13:47;5.57;;;4.95;;
12587;SDS011;6359;51.450;7.346;2023-04-06T07:16:14;5.65;;;4.95;;
12587;SDS011;6359;51.450;7.346;2023-04-06T07:18:42;7.97;;;5.30;;
12587;SDS011;6359;51.450;7.346;2023-04-06T07:21:09;8.25;;;4.80;;
12587;SDS011;6359;51.450;7.346;2023-04-06T07:23:36;8.25;;;5.05;;
12587;SDS011;6359;51.450;7.346;2023-04-06T07:26:05;6.10;;;4.60;;
12587;SDS011;6359;51.450;7.346;2023-04-06T07:28:32;9.98;;;5.15;;
12587;SDS011;6359;51.450;7.346;2023-04-06T07:30:59;7.47;;;5.15;;
12587;SDS011;6359;51.450;7.346;2023-04-06T07:33:26;6.25;;;4.97;;
12587;SDS011;6359;51.450;7.346;2023-04-06T07:35:55;6.53;;;4.90;;
12587;SDS011;6359;51.450;7.346;2023-04-06T07:38:23;9.50;;;5.65;;
12587;SDS011;6359;51.450;7.346;2023-04-06T07:40:50;8.27;;;5.20;;
12587;SDS011;6359;51.450;7.346;2023-04-06T07:43:19;7.10;;;5.25;;
12587;SDS011;6359;51.450;7.346;2023-04-06T07:45:46;5.82;;;4.88;;
12587;SDS011;6359;51.450;7.346;2023-04-06T07:48:13;5.72;;;4.65;;
12587;SDS011;6359;51.450;7.346;2023-04-06T07:50:40;8.07;;;5.38;;
12587;SDS011;6359;51.450;7.346;2023-04-06T07:53:08;7.07;;;5.63;;
12587;SDS011;6359;51.450;7.346;2023-04-06T07:55:35;7.05;;;5.28;;
12587;SDS011;6359;51.450;7.346;2023-04-06T07:58:02;7.53;;;5.55;;
12587;SDS011;6359;51.450;7.346;2023-04-06T08:00:31;8.50;;;5.00;;
12587;SDS011;6359;51.450;7.346;2023-04-06T08:02:58;9.50;;;5.03;;
12587;SDS011;6359;51.450;7.346;2023-04-06T08:05:25;8.68;;;5.68;;
12587;SDS011;6359;51.450;7.346;2023-04-06T08:07:52;7.75;;;5.78;;
12587;SDS011;6359;51.450;7.346;2023-04-06T08:10:19;7.95;;;5.40;;
12587;SDS011;6359;51.450;7.346;2023-04-06T08:12:47;8.93;;;5.80;;
12587;SDS011;6359;51.450;7.346;2023-04-06T08:15:14;6.60;;;4.88;;
12587;SDS011;6359;51.450;7.346;2023-04-06T08:17:44;7.43;;;5.00;;
12587;SDS011;6359;51.450;7.346;2023-04-06T08:20:11;7.05;;;5.18;;
12587;SDS011;6359;51.450;7.346;2023-04-06T08:22:38;7.65;;;5.50;;
12587;SDS011;6359;51.450;7.346;2023-04-06T08:25:06;11.68;;;5.30;;
12587;SDS011;6359;51.450;7.346;2023-04-06T08:27:33;8.48;;;6.32;;
12587;SDS011;6359;51.450;7.346;2023-04-06T08:30:00;6.25;;;5.03;;
12587;SDS011;6359;51.450;7.346;2023-04-06T08:32:27;7.70;;;5.15;;
12587;SDS011;6359;51.450;7.346;2023-04-06T08:34:56;10.02;;;6.00;;
12587;SDS011;6359;51.450;7.346;2023-04-06T08:37:24;9.18;;;6.18;;
12587;SDS011;6359;51.450;7.346;2023-04-06T08:39:51;7.78;;;5.45;;
12587;SDS011;6359;51.450;7.346;2023-04-06T08:42:19;6.57;;;5.53;;
12587;SDS011;6359;51.450;7.346;2023-04-06T08:44:47;8.73;;;6.18;;
12587;SDS011;6359;51.450;7.346;2023-04-06T08:47:17;7.95;;;5.82;;
12587;SDS011;6359;51.450;7.346;2023-04-06T08:49:44;7.18;;;6.28;;
12587;SDS011;6359;51.450;7.346;2023-04-06T08:52:14;9.50;;;6.50;;
12587;SDS011;6359;51.450;7.346;2023-04-06T08:54:44;8.55;;;5.88;;
12587;SDS011;6359;51.450;7.346;2023-04-06T08:57:11;9.85;;;6.68;;
12587;SDS011;6359;51.450;7.346;2023-04-06T08:59:38;9.43;;;6.28;;
12587;SDS011;6359;51.450;7.346;2023-04-06T09:02:06;8.20;;;6.18;;
12587;SDS011;6359;51.450;7.346;2023-04-06T09:04:40;10.55;;;6.82;;
12587;SDS011;6359;51.450;7.346;2023-04-06T09:07:08;8.55;;;6.72;;
12587;SDS011;6359;51.450;7.346;2023-04-06T09:09:36;8.05;;;6.80;;
12587;SDS011;6359;51.450;7.346;2023-04-06T09:12:08;10.07;;;7.10;;
12587;SDS011;6359;51.450;7.346;2023-04-06T09:14:37;8.95;;;6.93;;
12587;SDS011;6359;51.450;7.346;2023-04-06T09:17:05;9.55;;;7.68;;
12587;SDS011;6359;51.450;7.346;2023-04-06T09:19:32;16.20;;;8.25;;
12587;SDS011;6359;51.450;7.346;2023-04-06T09:22:03;11.93;;;8.50;;
12587;SDS011;6359;51.450;7.346;2023-04-06T09:24:43;12.05;;;8.50;;
12587;SDS011;6359;51.450;7.346;2023-04-06T09:27:11;11.43;;;7.93;;
12587;SDS011;6359;51.450;7.346;2023-04-06T09:29:39;11.80;;;8.75;;
12587;SDS011;6359;51.450;7.346;2023-04-06T09:32:07;11.15;;;8.52;;
12587;SDS011;6359;51.450;7.346;2023-04-06T09:34:36;10.10;;;7.80;;
12587;SDS011;6359;51.450;7.346;2023-04-06T09:37:13;10.18;;;7.47;;
12587;SDS011;6359;51.450;7.346;2023-04-06T09:39:42;10.68;;;8.20;;
12587;SDS011;6359;51.450;7.346;2023-04-06T09:42:11;14.20;;;9.23;;
12587;SDS011;6359;51.450;7.346;2023-04-06T09:44:49;13.45;;;8.93;;
12587;SDS011;6359;51.450;7.346;2023-04-06T09:47:16;11.40;;;8.10;;
12587;SDS011;6359;51.450;7.346;2023-04-06T09:49:44;15.25;;;9.45;;
12587;SDS011;6359;51.450;7.346;2023-04-06T09:52:14;16.45;;;10.02;;
12587;SDS011;6359;51.450;7.346;2023-04-06T09:54:44;19.48;;;11.95;;
12587;SDS011;6359;51.450;7.346;2023-04-06T09:57:18;18.55;;;10.20;;
12587;SDS011;6359;51.450;7.346;2023-04-06T09:59:53;15.55;;;10.57;;
12587;SDS011;6359;51.450;7.346;2023-04-06T10:02:25;14.70;;;9.63;;
12587;SDS011;6359;51.450;7.346;2023-04-06T10:04:59;14.90;;;9.90;;
12587;SDS011;6359;51.450;7.346;2023-04-06T10:07:31;17.08;;;10.13;;
12587;SDS011;6359;51.450;7.346;2023-04-06T10:10:01;13.70;;;9.48;;
12587;SDS011;6359;51.450;7.346;2023-04-06T10:12:30;16.95;;;10.77;;
12587;SDS011;6359;51.450;7.346;2023-04-06T10:14:57;16.38;;;10.50;;
12587;SDS011;6359;51.450;7.346;2023-04-06T10:17:25;15.07;;;10.00;;
12587;SDS011;6359;51.450;7.346;2023-04-06T10:19:53;14.45;;;10.63;;
12587;SDS011;6359;51.450;7.346;2023-04-06T10:22:27;13.95;;;10.05;;
12587;SDS011;6359;51.450;7.346;2023-04-06T10:25:02;13.02;;;9.52;;
12587;SDS011;6359;51.450;7.346;2023-04-06T10:27:30;13.30;;;10.32;;
12587;SDS011;6359;51.450;7.346;2023-04-06T10:30:02;14.60;;;10.93;;
12587;SDS011;6359;51.450;7.346;2023-04-06T10:32:34;15.60;;;10.35;;
12587;SDS011;6359;51.450;7.346;2023-04-06T10:35:06;17.92;;;11.45;;
12587;SDS011;6359;51.450;7.346;2023-04-06T10:37:45;14.90;;;11.50;;
12587;SDS011;6359;51.450;7.346;2023-04-06T10:40:24;15.52;;;11.15;;
12587;SDS011;6359;51.450;7.346;2023-04-06T10:42:53;17.45;;;11.13;;
12587;SDS011;6359;51.450;7.346;2023-04-06T10:45:21;15.68;;;10.43;;
12587;SDS011;6359;51.450;7.346;2023-04-06T10:47:49;14.23;;;10.18;;
12587;SDS011;6359;51.450;7.346;2023-04-06T10:50:18;13.13;;;10.18;;
12587;SDS011;6359;51.450;7.346;2023-04-06T10:52:47;17.02;;;10.25;;
12587;SDS011;6359;51.450;7.346;2023-04-06T10:55:26;15.10;;;11.23;;
12587;SDS011;6359;51.450;7.346;2023-04-06T10:57:54;14.48;;;10.95;;
12587;SDS011;6359;51.450;7.346;2023-04-06T11:00:22;15.80;;;10.80;;
12587;SDS011;6359;51.450;7.346;2023-04-06T11:02:50;17.92;;;11.70;;
12587;SDS011;6359;51.450;7.346;2023-04-06T11:05:18;19.15;;;11.27;;
12587;SDS011;6359;51.450;7.346;2023-04-06T11:07:45;17.50;;;11.07;;
12587;SDS011;6359;51.450;7.346;2023-04-06T11:10:12;15.90;;;10.85;;
12587;SDS011;6359;51.450;7.346;2023-04-06T11:12:53;14.93;;;11.55;;
12587;SDS011;6359;51.450;7.346;2023-04-06T11:15:20;14.82;;;10.23;;
12587;SDS011;6359;51.450;7.346;2023-04-06T11:17:48;14.80;;;10.75;;
12587;SDS011;6359;51.450;7.346;2023-04-06T11:20:16;18.60;;;11.82;;
12587;SDS011;6359;51.450;7.346;2023-04-06T11:22:47;19.67;;;10.52;;
12587;SDS011;6359;51.450;7.346;2023-04-06T11:25:15;15.60;;;11.10;;
12587;SDS011;6359;51.450;7.346;2023-04-06T11:27:43;14.60;;;10.93;;
12587;SDS011;6359;51.450;7.346;2023-04-06T11:30:12;14.48;;;10.98;;
12587;SDS011;6359;51.450;7.346;2023-04-06T11:32:40;17.33;;;11.45;;
12587;SDS011;6359;51.450;7.346;2023-04-06T11:35:10;14.65;;;11.30;;
12587;SDS011;6359;51.450;7.346;2023-04-06T11:37:38;16.40;;;12.73;;
12587;SDS011;6359;51.450;7.346;2023-04-06T11:40:07;18.60;;;13.95;;
12587;SDS011;6359;51.450;7.346;2023-04-06T11:42:35;19.45;;;13.50;;
12587;SDS011;6359;51.450;7.346;2023-04-06T11:45:03;17.52;;;13.23;;
12587;SDS011;6359;51.450;7.346;2023-04-06T11:47:35;19.67;;;14.27;;
12587;SDS011;6359;51.450;7.346;2023-04-06T11:50:07;17.33;;;12.73;;
12587;SDS011;6359;51.450;7.346;2023-04-06T11:52:36;15.93;;;11.75;;
12587;SDS011;6359;51.450;7.346;2023-04-06T11:55:10;17.48;;;12.65;;
12587;SDS011;6359;51.450;7.346;2023-04-06T11:57:39;20.35;;;14.05;;
12587;SDS011;6359;51.450;7.346;2023-04-06T12:00:07;17.77;;;13.80;;
12587;SDS011;6359;51.450;7.346;2023-04-06T12:02:38;16.70;;;12.70;;
12587;SDS011;6359;51.450;7.346;2023-04-06T12:05:06;18.45;;;11.88;;
12587;SDS011;6359;51.450;7.346;2023-04-06T12:07:34;18.48;;;12.88;;
12587;SDS011;6359;51.450;7.346;2023-04-06T12:10:01;18.95;;;12.73;;
12587;SDS011;6359;51.450;7.346;2023-04-06T12:12:29;18.50;;;11.90;;
12587;SDS011;6359;51.450;7.346;2023-04-06T12:14:56;18.00;;;11.25;;
12587;SDS011;6359;51.450;7.346;2023-04-06T12:17:23;14.50;;;11.18;;
12587;SDS011;6359;51.450;7.346;2023-04-06T12:19:52;16.10;;;10.73;;
12587;SDS011;6359;51.450;7.346;2023-04-06T12:22:19;14.85;;;10.48;;
12587;SDS011;6359;51.450;7.346;2023-04-06T12:24:46;15.40;;;10.50;;
12587;SDS011;6359;51.450;7.346;2023-04-06T12:27:13;12.68;;;10.07;;
12587;SDS011;6359;51.450;7.346;2023-04-06T12:29:41;16.23;;;10.40;;
12587;SDS011;6359;51.450;7.346;2023-04-06T12:32:08;20.05;;;10.82;;
12587;SDS011;6359;51.450;7.346;2023-04-06T12:34:35;14.25;;;9.70;;
12587;SDS011;6359;51.450;7.346;2023-04-06T12:37:05;14.60;;;10.20;;
12587;SDS011;6359;51.450;7.346;2023-04-06T12:39:32;15.85;;;10.48;;
12587;SDS011;6359;51.450;7.346;2023-04-06T12:42:00;18.13;;;10.75;;
12587;SDS011;6359;51.450;7.346;2023-04-06T12:44:27;13.35;;;9.02;;
12587;SDS011;6359;51.450;7.346;2023-04-06T12:46:55;15.68;;;9.77;;
12587;SDS011;6359;51.450;7.346;2023-04-06T12:49:22;12.32;;;9.57;;
12587;SDS011;6359;51.450;7.346;2023-04-06T12:51:49;14.18;;;9.82;;
12587;SDS011;6359;51.450;7.346;2023-04-06T12:54:18;14.75;;;9.57;;
12587;SDS011;6359;51.450;7.346;2023-04-06T12:56:45;18.48;;;9.65;;
12587;SDS011;6359;51.450;7.346;2023-04-06T12:59:12;11.55;;;8.70;;
12587;SDS011;6359;51.450;7.346;2023-04-06T13:01:39;16.40;;;9.57;;
12587;SDS011;6359;51.450;7.346;2023-04-06T13:04:06;13.10;;;9.50;;
12587;SDS011;6359;51.450;7.346;2023-04-06T13:06:33;12.43;;;9.52;;
12587;SDS011;6359;51.450;7.346;2023-04-06T13:09:01;17.17;;;9.73;;
12587;SDS011;6359;51.450;7.346;2023-04-06T13:11:30;12.27;;;9.38;;
12587;SDS011;6359;51.450;7.346;2023-04-06T13:13:57;13.13;;;9.48;;
12587;SDS011;6359;51.450;7.346;2023-04-06T13:16:25;15.18;;;9.90;;
12587;SDS011;6359;51.450;7.346;2023-04-06T13:18:52;13.65;;;9.10;;
12587;SDS011;6359;51.450;7.346;2023-04-06T13:21:19;14.23;;;9.98;;
12587;SDS011;6359;51.450;7.346;2023-04-06T13:23:46;17.42;;;9.90;;
12587;SDS011;6359;51.450;7.346;2023-04-06T13:26:14;18.73;;;10.63;;
12587;SDS011;6359;51.450;7.346;2023-04-06T13:28:43;14.77;;;10.32;;
12587;SDS011;6359;51.450;7.346;2023-04-06T13:31:10;12.77;;;9.55;;
12587;SDS011;6359;51.450;7.346;2023-04-06T13:33:38;16.77;;;10.63;;
12587;SDS011;6359;51.450;7.346;2023-04-06T13:36:06;14.85;;;10.02;;
12587;SDS011;6359;51.450;7.346;2023-04-06T13:38:33;16.65;;;11.05;;
12587;SDS011;6359;51.450;7.346;2023-04-06T13:41:03;14.23;;;9.50;;
12587;SDS011;6359;51.450;7.346;2023-04-06T13:43:31;16.40;;;9.50;;
12587;SDS011;6359;51.450;7.346;2023-04-06T13:45:59;13.23;;;9.15;;
12587;SDS011;6359;51.450;7.346;2023-04-06T13:48:27;12.30;;;10.00;;
12587;SDS011;6359;51.450;7.346;2023-04-06T13:50:54;12.65;;;8.88;;
12587;SDS011;6359;51.450;7.346;2023-04-06T13:53:21;11.35;;;8.23;;
12587;SDS011;6359;51.450;7.346;2023-04-06T13:55:54;10.55;;;7.40;;
12587;SDS011;6359;51.450;7.346;2023-04-06T13:58:21;16.92;;;6.65;;
12587;SDS011;6359;51.450;7.346;2023-04-06T14:00:48;8.93;;;6.85;;
12587;SDS011;6359;51.450;7.346;2023-04-06T14:03:17;9.75;;;7.28;;
12587;SDS011;6359;51.450;7.346;2023-04-06T14:05:44;10.63;;;7.18;;
12587;SDS011;6359;51.450;7.346;2023-04-06T14:08:11;13.40;;;8.13;;
12587;SDS011;6359;51.450;7.346;2023-04-06T14:10:38;9.15;;;6.53;;
12587;SDS011;6359;51.450;7.346;2023-04-06T14:13:07;9.05;;;5.88;;
12587;SDS011;6359;51.450;7.346;2023-04-06T14:15:34;8.23;;;6.18;;
12587;SDS011;6359;51.450;7.346;2023-04-06T14:18:01;8.90;;;6.82;;
12587;SDS011;6359;51.450;7.346;2023-04-06T14:20:29;10.52;;;6.78;;
12587;SDS011;6359;51.450;7.346;2023-04-06T14:22:59;10.55;;;7.75;;
12587;SDS011;6359;51.450;7.346;2023-04-06T14:25:26;13.00;;;8.65;;
12587;SDS011;6359;51.450;7.346;2023-04-06T14:27:53;10.95;;;7.95;;
12587;SDS011;6359;51.450;7.346;2023-04-06T14:30:20;12.32;;;7.47;;
12587;SDS011;6359;51.450;7.346;2023-04-06T14:32:47;14.82;;;8.15;;
12587;SDS011;6359;51.450;7.346;2023-04-06T14:35:14;13.70;;;7.90;;
12587;SDS011;6359;51.450;7.346;2023-04-06T14:37:43;17.67;;;7.65;;
12587;SDS011;6359;51.450;7.346;2023-04-06T14:40:11;18.90;;;9.45;;
12587;SDS011;6359;51.450;7.346;2023-04-06T14:42:38;12.48;;;7.82;;
12587;SDS011;6359;51.450;7.346;2023-04-06T14:45:06;11.00;;;7.55;;
12587;SDS011;6359;51.450;7.346;2023-04-06T14:47:33;13.57;;;8.32;;
12587;SDS011;6359;51.450;7.346;2023-04-06T14:50:00;13.13;;;8.23;;
12587;SDS011;6359;51.450;7.346;2023-04-06T14:52:27;10.88;;;7.50;;